createdAt,value
2024-01-20T00:02:20.835Z,11.17
2024-01-20T00:04:47.985Z,10.53
2024-01-20T00:07:14.959Z,11.53
2024-01-20T00:09:49.828Z,12.30
2024-01-20T00:12:18.236Z,14.43
2024-01-20T00:14:45.375Z,12.87
2024-01-20T00:17:21.234Z,12.20
2024-01-20T00:19:54.376Z,12.60
2024-01-20T00:22:23.691Z,12.50
2024-01-20T00:24:51.261Z,13.20
2024-01-20T00:27:19.233Z,12.40
2024-01-20T00:29:47.278Z,13.13
2024-01-20T00:32:16.426Z,14.23
2024-01-20T00:34:55.393Z,14.03
2024-01-20T00:37:30.801Z,14.10
2024-01-20T00:39:58.084Z,14.70
2024-01-20T00:42:24.968Z,14.30
2024-01-20T00:44:51.856Z,15.70
2024-01-20T00:47:18.814Z,16.13
2024-01-20T00:49:45.822Z,13.73
2024-01-20T00:52:12.743Z,15.30
2024-01-20T00:54:39.715Z,14.87
2024-01-20T00:57:06.686Z,14.70
2024-01-20T00:59:33.585Z,15.43
2024-01-20T01:02:00.491Z,14.60
2024-01-20T01:04:27.447Z,13.37
2024-01-20T01:06:54.323Z,14.40
2024-01-20T01:09:21.254Z,14.60
2024-01-20T01:11:48.172Z,15.10
2024-01-20T01:14:15.241Z,14.20
2024-01-20T01:16:42.307Z,14.27
2024-01-20T01:19:09.240Z,13.63
2024-01-20T01:21:36.158Z,15.43
2024-01-20T01:24:03.131Z,13.60
2024-01-20T01:26:32.092Z,15.37
2024-01-20T01:29:00.310Z,15.90
2024-01-20T01:31:27.566Z,15.80
2024-01-20T01:33:54.553Z,16.00
2024-01-20T01:36:21.580Z,15.47
2024-01-20T01:38:48.507Z,15.10
2024-01-20T01:41:15.525Z,15.50
2024-01-20T01:43:42.533Z,14.63
2024-01-20T01:46:10.013Z,15.50
2024-01-20T01:48:37.488Z,13.90
2024-01-20T01:51:05.479Z,15.20
2024-01-20T01:53:36.061Z,15.97
2024-01-20T01:56:03.298Z,15.23
2024-01-20T01:58:30.314Z,16.67
2024-01-20T02:00:57.530Z,15.30
2024-01-20T02:03:25.172Z,14.80
2024-01-20T02:05:52.933Z,15.03
2024-01-20T02:08:21.170Z,18.47
2024-01-20T02:10:48.764Z,13.87
2024-01-20T02:13:16.659Z,16.00
2024-01-20T02:15:44.036Z,13.70
2024-01-20T02:18:11.285Z,14.33
2024-01-20T02:20:38.332Z,14.30
2024-01-20T02:23:05.305Z,13.93
2024-01-20T02:25:32.321Z,14.27
2024-01-20T02:27:59.492Z,14.60
2024-01-20T02:30:26.631Z,14.70
2024-01-20T02:32:53.835Z,14.47
2024-01-20T02:35:21.564Z,15.37
2024-01-20T02:37:48.686Z,13.77
2024-01-20T02:40:15.681Z,14.00
2024-01-20T02:42:42.595Z,14.83
2024-01-20T02:45:09.766Z,15.50
2024-01-20T02:47:36.798Z,15.60
2024-01-20T02:50:03.942Z,14.50
2024-01-20T02:52:30.964Z,15.77
2024-01-20T02:54:57.947Z,14.53
2024-01-20T02:57:25.448Z,15.43
2024-01-20T02:59:52.511Z,13.57
2024-01-20T03:02:19.541Z,14.77
2024-01-20T03:04:46.455Z,14.90
2024-01-20T03:07:15.308Z,14.10
2024-01-20T03:09:42.308Z,15.30
2024-01-20T03:12:09.383Z,14.70
2024-01-20T03:14:36.626Z,14.50
2024-01-20T03:17:03.548Z,15.07
2024-01-20T03:19:30.622Z,14.53
2024-01-20T03:21:57.606Z,13.60
2024-01-20T03:24:24.863Z,15.50
2024-01-20T03:26:52.163Z,14.57
2024-01-20T03:29:19.258Z,15.60
2024-01-20T03:31:46.217Z,16.03
2024-01-20T03:34:13.470Z,15.90
2024-01-20T03:36:40.549Z,16.40
2024-01-20T03:39:07.576Z,14.23
2024-01-20T03:41:34.544Z,16.97
2024-01-20T03:44:01.500Z,16.10
2024-01-20T03:46:28.399Z,16.83
2024-01-20T03:48:55.479Z,17.57
2024-01-20T03:51:27.643Z,15.03
2024-01-20T03:53:55.360Z,16.53
2024-01-20T03:56:22.291Z,17.57
2024-01-20T03:58:49.631Z,16.53
2024-01-20T04:01:16.586Z,17.50
2024-01-20T04:03:44.763Z,16.83
2024-01-20T04:06:11.738Z,17.10
2024-01-20T04:08:38.806Z,16.53
2024-01-20T04:11:06.301Z,16.47
2024-01-20T04:13:33.280Z,16.80
2024-01-20T04:16:00.183Z,18.67
2024-01-20T04:18:27.263Z,19.13
2024-01-20T04:20:54.333Z,18.67
2024-01-20T04:23:21.256Z,17.40
2024-01-20T04:25:48.616Z,18.50
2024-01-20T04:28:15.645Z,18.80
2024-01-20T04:30:42.643Z,17.57
2024-01-20T04:33:09.781Z,16.23
2024-01-20T04:35:36.823Z,16.80
2024-01-20T04:38:03.832Z,17.17
2024-01-20T04:40:30.721Z,17.57
2024-01-20T04:42:57.632Z,17.90
2024-01-20T04:45:24.584Z,18.83
2024-01-20T04:47:51.616Z,15.60
2024-01-20T04:50:18.581Z,16.83
2024-01-20T04:52:45.514Z,16.17
2024-01-20T04:55:12.470Z,17.50
2024-01-20T04:57:39.424Z,16.30
2024-01-20T05:00:07.754Z,17.10
2024-01-20T05:02:36.896Z,16.80
2024-01-20T05:05:04.726Z,16.77
2024-01-20T05:07:31.879Z,16.23
2024-01-20T05:09:58.879Z,17.20
2024-01-20T05:12:26.663Z,14.43
2024-01-20T05:14:54.406Z,15.47
2024-01-20T05:17:21.422Z,13.30
2024-01-20T05:19:48.645Z,14.40
2024-01-20T05:22:18.351Z,13.80
2024-01-20T05:24:45.792Z,15.27
2024-01-20T05:27:12.980Z,13.87
2024-01-20T05:29:39.915Z,14.07
2024-01-20T05:32:06.815Z,13.97
2024-01-20T05:34:33.845Z,12.90
2024-01-20T05:37:00.861Z,13.00
2024-01-20T05:39:27.921Z,14.57
2024-01-20T05:41:55.031Z,14.00
2024-01-20T05:44:22.016Z,14.73
2024-01-20T05:46:48.913Z,13.20
2024-01-20T05:49:16.021Z,14.53
2024-01-20T05:51:43.028Z,15.13
2024-01-20T05:54:10.060Z,14.07
2024-01-20T05:56:37.021Z,14.73
2024-01-20T05:59:04.113Z,16.00
2024-01-20T06:01:31.363Z,14.40
2024-01-20T06:03:58.603Z,14.17
2024-01-20T06:06:25.621Z,13.10
2024-01-20T06:08:52.632Z,14.57
2024-01-20T06:11:19.620Z,14.60
2024-01-20T06:13:46.640Z,14.23
2024-01-20T06:16:14.157Z,13.30
2024-01-20T06:18:41.138Z,14.80
2024-01-20T06:21:09.353Z,17.20
2024-01-20T06:23:36.722Z,14.37
2024-01-20T06:26:04.215Z,13.83
2024-01-20T06:28:31.142Z,14.87
2024-01-20T06:30:58.085Z,14.77
2024-01-20T06:33:25.298Z,14.90
2024-01-20T06:35:52.396Z,14.70
2024-01-20T06:38:19.326Z,15.10
2024-01-20T06:40:46.286Z,13.70
2024-01-20T06:43:13.185Z,15.83
2024-01-20T06:45:40.869Z,15.13
2024-01-20T06:48:09.020Z,14.73
2024-01-20T06:50:40.882Z,15.83
2024-01-20T06:53:07.797Z,15.47
2024-01-20T06:55:34.827Z,15.00
2024-01-20T06:58:01.725Z,15.13
2024-01-20T07:00:28.730Z,17.23
2024-01-20T07:02:55.847Z,16.07
2024-01-20T07:05:22.888Z,16.00
2024-01-20T07:07:49.815Z,17.60
2024-01-20T07:10:16.812Z,17.10
2024-01-20T07:12:43.784Z,17.40
2024-01-20T07:15:11.278Z,17.00
2024-01-20T07:17:38.285Z,16.63
2024-01-20T07:20:05.867Z,16.10
2024-01-20T07:22:32.929Z,15.67
2024-01-20T07:24:59.854Z,15.37
2024-01-20T07:27:26.834Z,15.67
2024-01-20T07:29:53.807Z,16.30
2024-01-20T07:32:20.844Z,15.50
2024-01-20T07:34:47.891Z,17.07
2024-01-20T07:37:16.428Z,15.37
2024-01-20T07:39:44.028Z,15.80
2024-01-20T07:42:11.611Z,15.07
2024-01-20T07:44:38.608Z,14.60
2024-01-20T07:47:05.586Z,14.50
2024-01-20T07:49:32.606Z,14.67
2024-01-20T07:51:59.591Z,15.80
2024-01-20T07:54:26.525Z,14.57
2024-01-20T07:56:53.423Z,16.30
2024-01-20T07:59:20.351Z,15.57
2024-01-20T08:01:47.510Z,14.87
2024-01-20T08:04:15.371Z,14.60
2024-01-20T08:06:42.322Z,14.67
2024-01-20T08:09:11.476Z,14.93
2024-01-20T08:11:38.381Z,14.83
2024-01-20T08:14:05.358Z,14.53
2024-01-20T08:16:32.248Z,15.40
2024-01-20T08:18:59.347Z,15.17
2024-01-20T08:21:26.424Z,14.73
2024-01-20T08:23:53.335Z,15.13
2024-01-20T08:26:20.301Z,15.60
2024-01-20T08:28:47.286Z,15.33
2024-01-20T08:31:14.346Z,16.80
2024-01-20T08:33:43.375Z,14.60
2024-01-20T08:36:10.633Z,15.77
2024-01-20T08:38:37.812Z,13.00
2024-01-20T08:41:11.564Z,15.53
2024-01-20T08:43:43.419Z,14.80
2024-01-20T08:46:13.585Z,12.77
2024-01-20T08:48:41.436Z,13.70
2024-01-20T08:51:08.478Z,13.87
2024-01-20T08:53:35.401Z,13.63
2024-01-20T08:56:02.901Z,14.40
2024-01-20T08:58:31.077Z,15.47
2024-01-20T09:00:58.168Z,26.63
2024-01-20T09:03:25.300Z,13.70
2024-01-20T09:05:52.545Z,13.80
2024-01-20T09:08:19.996Z,13.77
2024-01-20T09:10:46.926Z,13.47
2024-01-20T09:13:13.914Z,14.17
2024-01-20T09:15:41.161Z,15.10
2024-01-20T09:18:08.965Z,13.70
2024-01-20T09:20:36.419Z,17.33
2024-01-20T09:23:04.335Z,17.30
2024-01-20T09:25:31.258Z,16.43
2024-01-20T09:27:58.167Z,12.83
2024-01-20T09:30:25.084Z,14.67
2024-01-20T09:32:52.137Z,14.00
2024-01-20T09:35:19.139Z,13.20
2024-01-20T09:37:46.037Z,12.70
2024-01-20T09:40:13.258Z,12.47
2024-01-20T09:42:40.861Z,12.93
2024-01-20T09:45:08.359Z,14.50
2024-01-20T09:47:36.478Z,13.23
2024-01-20T09:50:07.344Z,12.80
2024-01-20T09:52:52.452Z,13.30
2024-01-20T09:55:22.873Z,12.50
2024-01-20T09:57:51.408Z,13.67
2024-01-20T10:00:22.030Z,13.33
2024-01-20T10:02:49.763Z,12.97
2024-01-20T10:05:17.281Z,13.70
2024-01-20T10:07:44.642Z,13.57
2024-01-20T10:10:21.227Z,12.93
2024-01-20T10:12:55.609Z,12.63
2024-01-20T10:15:27.096Z,13.50
2024-01-20T10:17:56.283Z,13.77
2024-01-20T10:20:32.538Z,11.90
2024-01-20T10:23:03.402Z,13.77
2024-01-20T10:25:30.609Z,13.60
2024-01-20T10:27:57.671Z,12.30
2024-01-20T10:30:26.135Z,14.00
2024-01-20T10:33:04.288Z,13.90
2024-01-20T10:35:36.747Z,14.00
2024-01-20T10:38:10.150Z,12.83
2024-01-20T10:40:41.591Z,12.00
2024-01-20T10:43:15.769Z,13.00
2024-01-20T10:45:51.780Z,13.30
2024-01-20T10:48:28.735Z,12.30
2024-01-20T10:51:01.370Z,13.47
2024-01-20T10:53:28.800Z,13.60
2024-01-20T10:55:56.237Z,11.87
2024-01-20T10:58:34.317Z,12.60
2024-01-20T11:01:01.597Z,12.03
2024-01-20T11:03:29.253Z,11.60
2024-01-20T11:05:56.749Z,12.37
2024-01-20T11:08:26.113Z,13.53
2024-01-20T11:10:54.906Z,11.90
2024-01-20T11:13:27.539Z,12.13
2024-01-20T11:15:56.321Z,13.27
2024-01-20T11:18:24.400Z,12.13
2024-01-20T11:20:57.305Z,12.40
2024-01-20T11:23:24.375Z,11.97
2024-01-20T11:25:51.466Z,11.70
2024-01-20T11:28:32.820Z,12.00
2024-01-20T11:31:04.232Z,12.27
2024-01-20T11:33:32.190Z,11.40
2024-01-20T11:36:01.655Z,10.87
2024-01-20T11:38:29.938Z,11.30
2024-01-20T11:41:01.315Z,11.77
2024-01-20T11:43:28.763Z,12.63
2024-01-20T11:45:57.739Z,10.80
2024-01-20T11:48:26.012Z,12.40
2024-01-20T11:50:53.128Z,11.43
2024-01-20T11:53:21.722Z,11.93
2024-01-20T11:55:56.922Z,12.03
2024-01-20T11:58:23.959Z,11.57
2024-01-20T12:00:55.667Z,13.70
2024-01-20T12:03:23.326Z,12.37
2024-01-20T12:05:51.171Z,12.13
2024-01-20T12:08:18.776Z,11.90
2024-01-20T12:10:50.322Z,12.83
2024-01-20T12:13:18.200Z,13.80
2024-01-20T12:15:49.052Z,11.80
2024-01-20T12:18:18.450Z,12.40
2024-01-20T12:20:45.786Z,11.20
2024-01-20T12:23:23.565Z,13.50
2024-01-20T12:25:54.720Z,12.63
2024-01-20T12:28:22.694Z,14.10
2024-01-20T12:30:50.242Z,12.97
2024-01-20T12:33:17.457Z,12.10
2024-01-20T12:35:44.634Z,14.07
2024-01-20T12:38:11.559Z,11.30
2024-01-20T12:40:38.472Z,14.23
2024-01-20T12:43:05.474Z,12.30
2024-01-20T12:45:32.452Z,12.53
2024-01-20T12:47:59.564Z,13.10
2024-01-20T12:50:26.548Z,12.57
2024-01-20T12:52:53.558Z,11.70
2024-01-20T12:55:20.498Z,11.93
2024-01-20T12:57:47.932Z,12.60
2024-01-20T13:00:15.551Z,12.30
2024-01-20T13:02:42.533Z,12.37
2024-01-20T13:05:09.907Z,12.47
2024-01-20T13:07:36.892Z,12.67
2024-01-20T13:10:04.505Z,14.10
2024-01-20T13:12:32.554Z,14.33
2024-01-20T13:14:59.730Z,13.60
2024-01-20T13:17:26.718Z,13.97
2024-01-20T13:19:53.795Z,14.30
2024-01-20T13:22:20.790Z,13.80
2024-01-20T13:24:47.727Z,13.80
2024-01-20T13:27:14.732Z,12.80
2024-01-20T13:29:41.713Z,11.97
2024-01-20T13:32:08.669Z,13.87
2024-01-20T13:34:35.825Z,15.37
2024-01-20T13:37:03.606Z,14.87
2024-01-20T13:39:30.537Z,12.50
2024-01-20T13:41:57.465Z,12.70
2024-01-20T13:44:24.368Z,12.73
2024-01-20T13:46:51.309Z,12.70
2024-01-20T13:49:18.308Z,13.20
2024-01-20T13:51:45.360Z,14.73
2024-01-20T13:54:12.290Z,14.50
2024-01-20T13:56:39.204Z,15.93
2024-01-20T13:59:06.410Z,16.57
2024-01-20T14:01:33.341Z,15.00
2024-01-20T14:04:01.453Z,15.33
2024-01-20T14:06:28.806Z,13.57
2024-01-20T14:08:55.734Z,12.30
2024-01-20T14:11:24.740Z,12.00
2024-01-20T14:13:51.687Z,12.33
2024-01-20T14:16:18.918Z,12.13
2024-01-20T14:18:45.941Z,13.23
2024-01-20T14:21:13.163Z,10.97
2024-01-20T14:23:40.299Z,12.33
2024-01-20T14:26:07.190Z,11.57
2024-01-20T14:28:34.103Z,13.60
2024-01-20T14:31:01.048Z,12.83
2024-01-20T14:33:28.047Z,12.87
2024-01-20T14:35:54.978Z,12.23
2024-01-20T14:38:21.944Z,12.60
2024-01-20T14:40:48.880Z,10.93
2024-01-20T14:43:15.791Z,11.70
2024-01-20T14:45:42.769Z,11.40
2024-01-20T14:48:09.960Z,12.27
2024-01-20T14:50:36.979Z,12.53
2024-01-20T14:53:04.084Z,11.63
2024-01-20T14:55:31.989Z,13.07
2024-01-20T14:57:59.284Z,12.10
2024-01-20T15:00:26.325Z,13.13
2024-01-20T15:02:53.377Z,12.40
2024-01-20T15:05:20.379Z,12.10
2024-01-20T15:07:47.285Z,11.80
2024-01-20T15:10:14.228Z,12.83
2024-01-20T15:12:41.324Z,11.70
2024-01-20T15:15:08.661Z,12.43
2024-01-20T15:17:35.633Z,11.67
2024-01-20T15:20:04.878Z,11.20
2024-01-20T15:22:31.812Z,11.90
2024-01-20T15:24:58.762Z,11.13
2024-01-20T15:27:25.893Z,11.67
2024-01-20T15:29:52.848Z,13.37
2024-01-20T15:32:19.744Z,11.57
2024-01-20T15:34:46.691Z,11.23
2024-01-20T15:37:13.623Z,11.87
2024-01-20T15:39:40.576Z,10.50
2024-01-20T15:42:07.567Z,11.47
2024-01-20T15:44:34.481Z,12.10
2024-01-20T15:47:01.401Z,10.97
2024-01-20T15:49:28.427Z,10.10
2024-01-20T15:51:55.400Z,11.53
2024-01-20T15:54:22.425Z,11.50
2024-01-20T15:56:49.431Z,11.97
2024-01-20T15:59:17.653Z,12.67
2024-01-20T16:01:44.910Z,13.00
2024-01-20T16:04:12.055Z,12.10
2024-01-20T16:06:40.030Z,10.77
2024-01-20T16:09:07.561Z,11.30
2024-01-20T16:11:34.487Z,14.57
2024-01-20T16:14:01.407Z,13.13
2024-01-20T16:16:28.309Z,12.03
2024-01-20T16:18:55.851Z,13.90
2024-01-20T16:21:24.855Z,11.40
2024-01-20T16:23:52.617Z,11.57
2024-01-20T16:26:23.086Z,13.33
2024-01-20T16:28:50.262Z,11.93
2024-01-20T16:31:17.651Z,11.63
2024-01-20T16:33:45.843Z,11.40
2024-01-20T16:36:19.807Z,11.90
2024-01-20T16:38:47.111Z,11.53
2024-01-20T16:41:14.305Z,12.10
2024-01-20T16:43:41.223Z,9.73
2024-01-20T16:46:08.182Z,10.10
2024-01-20T16:48:35.252Z,10.50
2024-01-20T16:51:10.373Z,10.00
2024-01-20T16:53:42.134Z,11.27
2024-01-20T16:56:09.355Z,12.37
2024-01-20T16:58:37.598Z,12.20
2024-01-20T17:01:04.722Z,10.33
2024-01-20T17:03:31.763Z,10.67
2024-01-20T17:05:59.164Z,10.43
2024-01-20T17:08:26.101Z,10.60
2024-01-20T17:10:53.023Z,11.90
2024-01-20T17:13:19.928Z,9.50
2024-01-20T17:15:46.875Z,10.80
2024-01-20T17:18:14.217Z,10.27
2024-01-20T17:20:41.234Z,11.17
2024-01-20T17:23:08.199Z,10.20
2024-01-20T17:25:35.157Z,10.23
2024-01-20T17:28:02.063Z,10.40
2024-01-20T17:30:29.016Z,10.40
2024-01-20T17:32:55.980Z,10.67
2024-01-20T17:35:22.905Z,11.13
2024-01-20T17:37:49.822Z,9.80
2024-01-20T17:40:16.911Z,10.50
2024-01-20T17:42:44.894Z,11.37
2024-01-20T17:45:12.128Z,10.53
2024-01-20T17:47:40.751Z,11.73
2024-01-20T17:50:08.473Z,13.93
2024-01-20T17:52:35.399Z,11.90
2024-01-20T17:55:02.425Z,15.00
2024-01-20T17:57:29.428Z,11.53
2024-01-20T17:59:56.763Z,13.00
2024-01-20T18:02:23.909Z,11.00
2024-01-20T18:04:51.067Z,11.57
2024-01-20T18:07:18.439Z,10.87
2024-01-20T18:09:45.396Z,12.20
2024-01-20T18:12:12.830Z,10.93
2024-01-20T18:14:40.498Z,11.60
2024-01-20T18:17:09.596Z,11.83
2024-01-20T18:19:36.563Z,11.93
2024-01-20T18:22:03.602Z,12.50
2024-01-20T18:24:30.569Z,11.40
2024-01-20T18:26:57.566Z,12.37
2024-01-20T18:29:24.487Z,12.10
2024-01-20T18:31:51.683Z,11.33
2024-01-20T18:34:18.649Z,12.90
2024-01-20T18:36:45.659Z,11.70
2024-01-20T18:39:12.614Z,12.00
2024-01-20T18:41:39.566Z,12.10
2024-01-20T18:44:06.523Z,12.37
2024-01-20T18:46:33.428Z,11.57
2024-01-20T18:49:00.454Z,13.40
2024-01-20T18:51:27.552Z,15.00
2024-01-20T18:53:55.340Z,12.73
2024-01-20T18:56:22.213Z,12.60
2024-01-20T18:58:49.117Z,12.57
2024-01-20T19:01:16.181Z,14.50
2024-01-20T19:03:43.312Z,13.47
2024-01-20T19:06:10.301Z,14.13
2024-01-20T19:08:38.694Z,14.47
2024-01-20T19:11:08.405Z,13.77
2024-01-20T19:13:35.373Z,15.70
2024-01-20T19:16:03.215Z,15.03
2024-01-20T19:18:30.509Z,15.03
2024-01-20T19:20:57.524Z,13.33
2024-01-20T19:23:24.479Z,14.03
2024-01-20T19:25:53.343Z,14.17
2024-01-20T19:28:20.309Z,15.60
2024-01-20T19:30:47.289Z,15.57
2024-01-20T19:33:14.349Z,15.73
2024-01-20T19:35:41.358Z,15.30
2024-01-20T19:38:08.264Z,16.13
2024-01-20T19:40:35.299Z,14.50
2024-01-20T19:43:02.208Z,15.43
2024-01-20T19:45:29.267Z,15.30
2024-01-20T19:47:56.287Z,15.70
2024-01-20T19:50:23.252Z,15.80
2024-01-20T19:52:50.154Z,14.73
2024-01-20T19:55:17.458Z,14.93
2024-01-20T19:57:44.418Z,14.50
2024-01-20T20:00:12.063Z,14.53
2024-01-20T20:02:41.911Z,15.10
2024-01-20T20:05:08.911Z,14.43
2024-01-20T20:07:35.851Z,14.07
2024-01-20T20:10:02.874Z,14.77
2024-01-20T20:12:30.610Z,16.00
2024-01-20T20:14:57.771Z,13.97
2024-01-20T20:17:25.002Z,14.40
2024-01-20T20:19:52.036Z,15.40
2024-01-20T20:22:19.026Z,15.20
2024-01-20T20:24:46.396Z,14.87
2024-01-20T20:27:13.610Z,16.73
2024-01-20T20:29:40.617Z,17.20
2024-01-20T20:32:07.604Z,15.60
2024-01-20T20:34:34.683Z,15.00
2024-01-20T20:37:01.720Z,16.03
2024-01-20T20:39:28.792Z,17.27
2024-01-20T20:41:55.788Z,16.67
2024-01-20T20:44:22.727Z,18.67
2024-01-20T20:46:49.670Z,16.07
2024-01-20T20:49:16.706Z,16.73
2024-01-20T20:51:43.873Z,16.93
2024-01-20T20:54:11.648Z,16.60
2024-01-20T20:56:38.613Z,16.77
2024-01-20T20:59:05.523Z,15.60
2024-01-20T21:01:32.887Z,16.77
2024-01-20T21:04:04.138Z,17.10
2024-01-20T21:06:33.077Z,17.47
2024-01-20T21:09:00.330Z,16.30
2024-01-20T21:11:27.226Z,16.40
2024-01-20T21:13:54.146Z,18.57
2024-01-20T21:16:21.032Z,17.90
2024-01-20T21:18:48.174Z,17.37
2024-01-20T21:21:15.263Z,18.17
2024-01-20T21:23:42.231Z,17.73
2024-01-20T21:26:09.789Z,17.60
2024-01-20T21:28:36.731Z,17.63
2024-01-20T21:31:04.313Z,17.90
2024-01-20T21:33:31.412Z,17.37
2024-01-20T21:35:58.485Z,16.77
2024-01-20T21:38:25.672Z,18.40
2024-01-20T21:40:52.602Z,18.30
2024-01-20T21:43:19.516Z,16.90
2024-01-20T21:45:46.596Z,17.87
2024-01-20T21:48:14.895Z,18.77
2024-01-20T21:50:43.424Z,18.63
2024-01-20T21:53:10.398Z,17.30
2024-01-20T21:55:37.340Z,17.33
2024-01-20T21:58:04.482Z,18.00
2024-01-20T22:00:31.596Z,16.70
2024-01-20T22:02:58.706Z,19.50
2024-01-20T22:05:25.709Z,17.23
2024-01-20T22:07:54.803Z,18.83
2024-01-20T22:10:21.816Z,17.93
2024-01-20T22:12:48.859Z,18.93
2024-01-20T22:15:15.971Z,17.60
2024-01-20T22:17:42.952Z,16.43
2024-01-20T22:20:10.638Z,17.33
2024-01-20T22:22:37.546Z,16.90
2024-01-20T22:25:04.629Z,18.27
2024-01-20T22:27:31.562Z,16.43
2024-01-20T22:29:58.579Z,17.77
2024-01-20T22:32:25.466Z,18.20
2024-01-20T22:34:52.452Z,17.10
2024-01-20T22:37:19.466Z,16.90
2024-01-20T22:39:46.435Z,15.73
2024-01-20T22:42:13.421Z,17.20
2024-01-20T22:44:40.317Z,18.80
2024-01-20T22:47:07.237Z,15.40
2024-01-20T22:49:34.499Z,15.80
2024-01-20T22:52:01.564Z,17.90
2024-01-20T22:54:29.160Z,15.43
2024-01-20T22:56:56.257Z,16.50
2024-01-20T22:59:23.192Z,15.30
2024-01-20T23:01:50.183Z,16.60
2024-01-20T23:04:17.269Z,15.57
2024-01-20T23:06:46.668Z,15.33
2024-01-20T23:09:13.732Z,15.03
2024-01-20T23:11:40.625Z,15.60
2024-01-20T23:14:07.517Z,13.63
2024-01-20T23:16:34.442Z,15.30
2024-01-20T23:19:01.483Z,14.23
2024-01-20T23:21:28.438Z,16.00
2024-01-20T23:23:55.470Z,15.00
2024-01-20T23:26:22.514Z,14.80
2024-01-20T23:28:49.438Z,14.03
2024-01-20T23:31:16.746Z,14.80
2024-01-20T23:33:43.727Z,13.90
2024-01-20T23:36:12.157Z,13.97
2024-01-20T23:38:39.085Z,13.03
2024-01-20T23:41:05.975Z,11.67
2024-01-20T23:43:32.889Z,12.27
2024-01-20T23:46:00.264Z,13.47
2024-01-20T23:48:27.173Z,13.00
2024-01-20T23:50:54.324Z,13.30
2024-01-20T23:53:21.239Z,13.30
2024-01-20T23:55:48.147Z,13.00
2024-01-20T23:58:15.085Z,13.27
